createdAt,value
2019-02-16T00:00:48.089Z,0.00
2019-02-16T00:01:48.262Z,0.00
2019-02-16T00:02:48.443Z,0.00
2019-02-16T00:03:48.626Z,0.00
2019-02-16T00:04:48.802Z,0.00
2019-02-16T00:05:48.976Z,0.00
2019-02-16T00:06:49.161Z,0.00
2019-02-16T00:07:49.339Z,0.00
2019-02-16T00:08:49.549Z,0.00
2019-02-16T00:09:49.708Z,0.00
2019-02-16T00:10:49.880Z,0.00
2019-02-16T00:11:50.062Z,0.00
2019-02-16T00:12:50.247Z,0.00
2019-02-16T00:13:50.431Z,0.00
2019-02-16T00:14:50.620Z,0.00
2019-02-16T00:15:50.801Z,0.00
2019-02-16T00:16:50.980Z,0.00
2019-02-16T00:17:51.160Z,0.00
2019-02-16T00:18:51.335Z,0.00
2019-02-16T00:19:51.520Z,0.00
2019-02-16T00:20:51.702Z,0.00
2019-02-16T00:21:51.881Z,0.00
2019-02-16T00:22:52.065Z,0.00
2019-02-16T00:23:52.235Z,0.00
2019-02-16T00:24:52.409Z,0.00
2019-02-16T00:25:52.584Z,0.00
2019-02-16T00:26:52.757Z,0.00
2019-02-16T00:27:52.937Z,0.00
2019-02-16T00:28:53.116Z,0.00
2019-02-16T00:29:53.299Z,0.00
2019-02-16T00:30:53.482Z,0.00
2019-02-16T00:31:53.650Z,0.00
2019-02-16T00:32:55.706Z,0.00
2019-02-16T00:33:54.018Z,0.00
2019-02-16T00:34:54.194Z,0.00
2019-02-16T00:35:54.365Z,0.00
2019-02-16T00:36:54.543Z,0.00
2019-02-16T00:37:54.723Z,0.00
2019-02-16T00:38:54.911Z,0.00
2019-02-16T00:39:55.085Z,0.00
2019-02-16T00:40:55.271Z,0.00
2019-02-16T00:41:55.445Z,0.00
2019-02-16T00:42:55.660Z,0.00
2019-02-16T00:43:55.827Z,0.00
2019-02-16T00:44:56.029Z,0.00
2019-02-16T00:45:56.200Z,0.00
2019-02-16T00:46:56.382Z,0.00
2019-02-16T00:47:56.567Z,0.00
2019-02-16T00:48:56.748Z,0.00
2019-02-16T00:49:56.926Z,0.00
2019-02-16T00:50:57.112Z,0.00
2019-02-16T00:51:57.286Z,0.00
2019-02-16T00:52:57.467Z,0.00
2019-02-16T00:53:57.654Z,0.00
2019-02-16T00:54:57.830Z,0.00
2019-02-16T00:55:58.012Z,0.00
2019-02-16T00:56:58.192Z,0.00
2019-02-16T00:57:58.368Z,0.00
2019-02-16T00:58:58.546Z,0.00
2019-02-16T00:59:58.730Z,0.00
2019-02-16T01:00:58.903Z,0.00
2019-02-16T01:01:59.083Z,0.00
2019-02-16T01:02:59.267Z,0.00
2019-02-16T01:03:59.446Z,0.00
2019-02-16T01:04:59.630Z,0.00
2019-02-16T01:05:59.816Z,0.00
2019-02-16T01:06:59.997Z,0.00
2019-02-16T01:08:00.174Z,0.00
2019-02-16T01:09:00.347Z,0.00
2019-02-16T01:10:00.537Z,0.00
2019-02-16T01:11:00.717Z,0.00
2019-02-16T01:12:00.899Z,0.00
2019-02-16T01:13:01.077Z,0.00
2019-02-16T01:14:01.259Z,0.00
2019-02-16T01:15:01.436Z,0.00
2019-02-16T01:16:01.612Z,0.00
2019-02-16T01:17:01.794Z,0.00
2019-02-16T01:18:01.967Z,0.00
2019-02-16T01:19:02.148Z,0.00
2019-02-16T01:20:02.329Z,0.00
2019-02-16T01:21:02.503Z,0.00
2019-02-16T01:22:02.685Z,0.00
2019-02-16T01:23:02.869Z,0.00
2019-02-16T01:24:03.055Z,0.00
2019-02-16T01:25:03.237Z,0.00
2019-02-16T01:26:03.414Z,0.00
2019-02-16T01:27:03.589Z,0.00
2019-02-16T01:28:03.797Z,0.00
2019-02-16T01:29:03.931Z,0.00
2019-02-16T01:30:04.110Z,0.00
2019-02-16T01:31:04.290Z,0.00
2019-02-16T01:32:04.480Z,0.00
2019-02-16T01:33:04.644Z,0.00
2019-02-16T01:34:04.825Z,0.00
2019-02-16T01:35:05.015Z,0.00
2019-02-16T01:36:05.183Z,0.00
2019-02-16T01:37:05.374Z,0.00
2019-02-16T01:38:05.545Z,0.00
2019-02-16T01:39:05.724Z,0.00
2019-02-16T01:40:05.902Z,0.00
2019-02-16T01:41:06.083Z,0.00
2019-02-16T01:42:06.267Z,0.00
2019-02-16T01:43:06.446Z,0.00
2019-02-16T01:44:06.621Z,0.00
2019-02-16T01:45:06.805Z,0.00
2019-02-16T01:46:06.977Z,0.00
2019-02-16T01:47:07.195Z,0.00
2019-02-16T01:48:07.332Z,0.00
2019-02-16T01:49:07.512Z,0.00
2019-02-16T01:50:07.698Z,0.00
2019-02-16T01:51:07.889Z,0.00
2019-02-16T01:52:08.048Z,0.00
2019-02-16T01:53:08.228Z,0.00
2019-02-16T01:54:08.410Z,0.00
2019-02-16T01:55:08.588Z,0.00
2019-02-16T01:56:08.774Z,0.00
2019-02-16T01:57:08.952Z,0.00
2019-02-16T01:58:09.130Z,0.00
2019-02-16T01:59:09.313Z,0.00
2019-02-16T02:00:09.489Z,0.00
2019-02-16T02:01:09.667Z,0.00
2019-02-16T02:02:09.840Z,0.00
2019-02-16T02:03:10.019Z,0.00
2019-02-16T02:04:10.199Z,0.00
2019-02-16T02:05:10.380Z,0.00
2019-02-16T02:06:10.559Z,0.00
2019-02-16T02:07:10.735Z,0.00
2019-02-16T02:08:10.915Z,0.00
2019-02-16T02:09:12.235Z,0.00
2019-02-16T02:10:11.268Z,0.00
2019-02-16T02:11:11.453Z,0.00
2019-02-16T02:12:11.631Z,0.00
2019-02-16T02:13:11.809Z,0.00
2019-02-16T02:14:12.003Z,0.00
2019-02-16T02:15:12.177Z,0.00
2019-02-16T02:16:12.358Z,0.00
2019-02-16T02:17:12.537Z,0.00
2019-02-16T02:18:12.726Z,0.00
2019-02-16T02:19:12.901Z,0.00
2019-02-16T02:20:13.080Z,0.00
2019-02-16T02:21:13.261Z,0.00
2019-02-16T02:22:13.442Z,0.00
2019-02-16T02:23:13.616Z,0.00
2019-02-16T02:24:13.804Z,0.00
2019-02-16T02:25:13.976Z,0.00
2019-02-16T02:26:14.159Z,0.00
2019-02-16T02:27:14.350Z,0.00
2019-02-16T02:28:14.528Z,0.00
2019-02-16T02:29:14.708Z,0.00
2019-02-16T02:30:14.896Z,0.00
2019-02-16T02:31:15.071Z,0.00
2019-02-16T02:32:15.249Z,0.00
2019-02-16T02:33:15.424Z,0.00
2019-02-16T02:34:15.633Z,0.00
2019-02-16T02:35:15.775Z,0.00
2019-02-16T02:36:15.958Z,0.00
2019-02-16T02:37:16.142Z,0.00
2019-02-16T02:38:16.330Z,0.00
2019-02-16T02:39:16.499Z,0.00
2019-02-16T02:40:16.690Z,0.00
2019-02-16T02:41:16.884Z,0.00
2019-02-16T02:42:17.051Z,0.00
2019-02-16T02:43:17.238Z,0.00
2019-02-16T02:44:17.421Z,0.00
2019-02-16T02:45:17.598Z,0.00
2019-02-16T02:46:17.777Z,0.00
2019-02-16T02:47:17.954Z,0.00
2019-02-16T02:48:18.130Z,0.00
2019-02-16T02:49:18.306Z,0.00
2019-02-16T02:50:18.486Z,0.00
2019-02-16T02:51:18.661Z,0.00
2019-02-16T02:52:18.842Z,0.00
2019-02-16T02:53:19.017Z,0.00
2019-02-16T02:54:19.203Z,0.00
2019-02-16T02:55:19.372Z,0.00
2019-02-16T02:56:19.556Z,0.00
2019-02-16T02:57:19.738Z,0.00
2019-02-16T02:58:19.930Z,0.00
2019-02-16T02:59:20.112Z,0.00
2019-02-16T03:00:20.287Z,0.00
2019-02-16T03:01:20.467Z,0.00
2019-02-16T03:02:20.645Z,0.00
2019-02-16T03:03:20.832Z,0.00
2019-02-16T03:04:21.006Z,0.00
2019-02-16T03:05:21.187Z,0.00
2019-02-16T03:06:21.368Z,0.00
2019-02-16T03:07:21.548Z,0.00
2019-02-16T03:08:21.726Z,0.00
2019-02-16T03:09:21.902Z,0.00
2019-02-16T03:10:22.080Z,0.00
2019-02-16T03:11:22.258Z,0.00
2019-02-16T03:12:22.437Z,0.00
2019-02-16T03:13:22.615Z,0.00
2019-02-16T03:14:22.786Z,0.00
2019-02-16T03:15:22.968Z,0.00
2019-02-16T03:16:23.143Z,0.00
2019-02-16T03:17:23.324Z,0.00
2019-02-16T03:18:23.501Z,0.00
2019-02-16T03:19:23.682Z,0.00
2019-02-16T03:20:23.861Z,0.00
2019-02-16T03:21:24.040Z,0.00
2019-02-16T03:22:24.219Z,0.00
2019-02-16T03:23:24.469Z,0.00
2019-02-16T03:24:24.581Z,0.00
2019-02-16T03:25:24.761Z,0.00
2019-02-16T03:26:24.940Z,0.00
2019-02-16T03:27:25.127Z,0.00
2019-02-16T03:28:25.304Z,0.00
2019-02-16T03:29:25.488Z,0.00
2019-02-16T03:30:25.661Z,0.00
2019-02-16T03:31:25.851Z,0.00
2019-02-16T03:32:26.029Z,0.00
2019-02-16T03:33:26.215Z,0.00
2019-02-16T03:34:26.390Z,0.00
2019-02-16T03:35:26.562Z,0.00
2019-02-16T03:36:26.746Z,0.00
2019-02-16T03:37:26.920Z,0.00
2019-02-16T03:38:27.103Z,0.00
2019-02-16T03:39:27.284Z,0.00
2019-02-16T03:40:27.459Z,0.00
2019-02-16T03:41:27.639Z,0.00
2019-02-16T03:42:27.811Z,0.00
2019-02-16T03:43:27.997Z,0.00
2019-02-16T03:44:28.170Z,0.00
2019-02-16T03:45:28.346Z,0.00
2019-02-16T03:46:28.531Z,0.00
2019-02-16T03:47:28.706Z,0.00
2019-02-16T03:48:28.885Z,0.00
2019-02-16T03:49:29.067Z,0.00
2019-02-16T03:50:29.255Z,0.00
2019-02-16T03:51:29.434Z,0.00
2019-02-16T03:52:29.633Z,0.00
2019-02-16T03:53:29.796Z,0.00
2019-02-16T03:54:29.975Z,0.00
2019-02-16T03:55:30.160Z,0.00
2019-02-16T03:56:30.326Z,0.00
2019-02-16T03:57:30.513Z,0.00
2019-02-16T03:58:30.697Z,0.00
2019-02-16T03:59:30.872Z,0.00
2019-02-16T04:00:31.049Z,0.00
2019-02-16T04:01:31.229Z,0.00
2019-02-16T04:02:31.413Z,0.00
2019-02-16T04:03:31.590Z,0.00
2019-02-16T04:04:31.772Z,0.00
2019-02-16T04:05:31.946Z,0.00
2019-02-16T04:06:32.129Z,0.00
2019-02-16T04:07:32.305Z,0.00
2019-02-16T04:08:32.479Z,0.00
2019-02-16T04:09:32.659Z,0.00
2019-02-16T04:10:32.838Z,0.00
2019-02-16T04:11:33.015Z,0.00
2019-02-16T04:12:33.186Z,0.00
2019-02-16T04:13:33.368Z,0.00
2019-02-16T04:14:33.545Z,0.00
2019-02-16T04:15:33.719Z,0.00
2019-02-16T04:16:33.899Z,0.00
2019-02-16T04:17:34.082Z,0.00
2019-02-16T04:18:34.262Z,0.00
2019-02-16T04:19:34.437Z,0.00
2019-02-16T04:20:34.609Z,0.00
2019-02-16T04:21:34.791Z,0.00
2019-02-16T04:22:34.973Z,0.00
2019-02-16T04:23:35.149Z,0.00
2019-02-16T04:24:35.324Z,0.00
2019-02-16T04:25:35.508Z,0.00
2019-02-16T04:26:35.688Z,0.00
2019-02-16T04:27:35.857Z,0.00
2019-02-16T04:28:36.044Z,0.00
2019-02-16T04:29:36.217Z,0.00
2019-02-16T04:30:36.395Z,0.00
2019-02-16T04:31:36.576Z,0.00
2019-02-16T04:32:36.750Z,0.00
2019-02-16T04:33:36.929Z,0.00
2019-02-16T04:34:37.105Z,0.00
2019-02-16T04:35:37.283Z,0.00
2019-02-16T04:36:37.462Z,0.00
2019-02-16T04:37:37.641Z,0.00
2019-02-16T04:38:37.819Z,0.00
2019-02-16T04:39:37.994Z,0.00
2019-02-16T04:40:38.181Z,0.00
2019-02-16T04:41:38.358Z,0.00
2019-02-16T04:42:38.531Z,0.00
2019-02-16T04:43:38.704Z,0.00
2019-02-16T04:44:38.890Z,0.00
2019-02-16T04:45:39.069Z,0.00
2019-02-16T04:46:39.251Z,0.00
2019-02-16T04:47:39.422Z,0.00
2019-02-16T04:48:39.618Z,0.00
2019-02-16T04:49:39.783Z,0.00
2019-02-16T04:50:39.956Z,0.00
2019-02-16T04:51:40.135Z,0.00
2019-02-16T04:52:40.322Z,0.00
2019-02-16T04:53:40.495Z,0.00
2019-02-16T04:54:40.669Z,0.00
2019-02-16T04:55:40.850Z,0.00
2019-02-16T04:56:41.028Z,0.00
2019-02-16T04:57:41.208Z,0.00
2019-02-16T04:58:41.395Z,0.00
2019-02-16T04:59:41.561Z,0.00
2019-02-16T05:00:41.742Z,0.00
2019-02-16T05:01:41.920Z,0.00
2019-02-16T05:02:42.102Z,0.00
2019-02-16T05:03:42.276Z,0.00
2019-02-16T05:04:42.490Z,0.00
2019-02-16T05:05:42.640Z,0.00
2019-02-16T05:06:42.825Z,0.00
2019-02-16T05:07:42.994Z,0.00
2019-02-16T05:08:43.173Z,0.00
2019-02-16T05:09:43.349Z,0.00
2019-02-16T05:10:43.533Z,0.00
2019-02-16T05:11:43.714Z,0.00
2019-02-16T05:12:43.898Z,0.00
2019-02-16T05:13:44.071Z,0.00
2019-02-16T05:14:44.246Z,0.00
2019-02-16T05:15:44.431Z,0.00
2019-02-16T05:16:44.604Z,0.00
2019-02-16T05:17:44.781Z,0.00
2019-02-16T05:18:44.949Z,0.00
2019-02-16T05:19:45.139Z,0.00
2019-02-16T05:20:45.373Z,0.00
2019-02-16T05:21:45.505Z,0.00
2019-02-16T05:22:45.685Z,0.00
2019-02-16T05:23:45.876Z,0.00
2019-02-16T05:24:46.170Z,0.00
2019-02-16T05:25:46.219Z,0.00
2019-02-16T05:26:46.389Z,0.00
2019-02-16T05:27:46.574Z,0.00
2019-02-16T05:28:46.749Z,0.00
2019-02-16T05:29:46.936Z,0.00
2019-02-16T05:30:47.102Z,0.00
2019-02-16T05:31:47.341Z,0.00
2019-02-16T05:32:47.453Z,0.00
2019-02-16T05:33:47.642Z,0.00
2019-02-16T05:34:48.125Z,0.00
2019-02-16T05:35:48.065Z,0.00
2019-02-16T05:36:48.190Z,0.00
2019-02-16T05:37:48.349Z,0.00
2019-02-16T05:38:48.518Z,0.00
2019-02-16T05:39:48.702Z,0.00
2019-02-16T05:40:48.878Z,0.00
2019-02-16T05:41:49.056Z,0.00
2019-02-16T05:42:49.245Z,0.00
2019-02-16T05:43:49.413Z,0.00
2019-02-16T05:44:49.623Z,0.00
2019-02-16T05:45:49.780Z,0.00
2019-02-16T05:46:49.958Z,0.00
2019-02-16T05:47:50.152Z,0.00
2019-02-16T05:48:50.310Z,0.00
2019-02-16T05:49:50.494Z,0.00
2019-02-16T05:50:50.680Z,0.00
2019-02-16T05:51:50.850Z,0.00
2019-02-16T05:52:54.502Z,0.00
2019-02-16T05:53:51.213Z,0.00
2019-02-16T05:54:51.392Z,0.00
2019-02-16T05:55:51.574Z,0.00
2019-02-16T05:56:51.740Z,0.00
2019-02-16T05:57:51.928Z,0.00
2019-02-16T05:58:52.106Z,0.00
2019-02-16T05:59:52.286Z,0.00
2019-02-16T06:00:52.461Z,0.00
2019-02-16T06:01:54.275Z,0.00
2019-02-16T06:02:52.812Z,0.00
2019-02-16T06:03:52.996Z,0.00
2019-02-16T06:04:53.172Z,0.00
2019-02-16T06:05:53.343Z,0.00
2019-02-16T06:06:53.537Z,0.00
2019-02-16T06:07:53.716Z,0.00
2019-02-16T06:08:53.888Z,0.00
2019-02-16T06:09:54.075Z,0.00
2019-02-16T06:10:54.257Z,0.00
2019-02-16T06:11:54.432Z,0.00
2019-02-16T06:12:54.616Z,0.00
2019-02-16T06:13:54.802Z,5.63
2019-02-16T06:14:54.990Z,5.63
2019-02-16T06:15:55.183Z,5.63
2019-02-16T06:16:55.360Z,5.63
2019-02-16T06:17:55.551Z,5.63
2019-02-16T06:18:55.730Z,11.25
2019-02-16T06:19:55.906Z,11.25
2019-02-16T06:20:56.083Z,11.25
2019-02-16T06:21:56.269Z,11.25
2019-02-16T06:23:03.775Z,16.88
2019-02-16T06:23:56.633Z,16.88
2019-02-16T06:24:56.819Z,22.50
2019-02-16T06:25:56.999Z,22.50
2019-02-16T06:26:57.178Z,28.13
2019-02-16T06:27:57.355Z,28.13
2019-02-16T06:28:57.562Z,33.75
2019-02-16T06:29:57.716Z,33.75
2019-02-16T06:30:57.891Z,39.38
2019-02-16T06:31:58.070Z,39.38
2019-02-16T06:32:58.247Z,45.00
2019-02-16T06:33:58.423Z,50.63
2019-02-16T06:34:58.604Z,56.25
2019-02-16T06:35:58.783Z,56.25
2019-02-16T06:36:58.961Z,61.88
2019-02-16T06:37:59.138Z,67.50
2019-02-16T06:38:59.329Z,67.50
2019-02-16T06:39:59.509Z,73.13
2019-02-16T06:40:59.683Z,84.38
2019-02-16T06:41:59.906Z,84.38
2019-02-16T06:43:00.038Z,95.63
2019-02-16T06:44:00.226Z,101.25
2019-02-16T06:45:00.391Z,106.88
2019-02-16T06:46:00.992Z,112.50
2019-02-16T06:47:00.752Z,123.75
2019-02-16T06:48:00.929Z,163.13
2019-02-16T06:49:01.114Z,230.63
2019-02-16T06:50:01.301Z,292.50
2019-02-16T06:51:01.474Z,360.00
2019-02-16T06:52:01.650Z,320.63
2019-02-16T06:53:01.836Z,337.50
2019-02-16T06:54:02.032Z,393.75
2019-02-16T06:55:02.215Z,331.88
2019-02-16T06:56:02.402Z,298.13
2019-02-16T06:57:02.568Z,343.13
2019-02-16T06:58:02.751Z,365.63
2019-02-16T06:59:02.927Z,348.75
2019-02-16T07:00:03.108Z,365.63
2019-02-16T07:01:03.301Z,354.38
2019-02-16T07:02:03.481Z,331.88
2019-02-16T07:03:03.662Z,303.75
2019-02-16T07:04:03.848Z,343.13
2019-02-16T07:05:04.030Z,500.63
2019-02-16T07:06:04.208Z,641.25
2019-02-16T07:07:04.401Z,708.75
2019-02-16T07:08:04.571Z,776.25
2019-02-16T07:09:04.757Z,725.63
2019-02-16T07:10:04.931Z,573.75
2019-02-16T07:11:05.115Z,624.38
2019-02-16T07:12:05.292Z,888.75
2019-02-16T07:13:05.477Z,793.13
2019-02-16T07:14:05.661Z,1018.13
2019-02-16T07:15:05.839Z,1468.13
2019-02-16T07:16:06.030Z,2221.88
2019-02-16T07:17:06.198Z,2823.75
2019-02-16T07:18:06.383Z,2857.50
2019-02-16T07:19:06.555Z,2964.38
2019-02-16T07:20:07.841Z,3031.88
2019-02-16T07:21:06.922Z,3088.13
2019-02-16T07:22:07.111Z,3144.38
2019-02-16T07:23:07.295Z,3211.88
2019-02-16T07:24:07.480Z,3273.75
2019-02-16T07:25:07.668Z,3313.13
2019-02-16T07:26:07.852Z,3352.50
2019-02-16T07:27:08.037Z,3442.50
2019-02-16T07:28:08.224Z,3555.00
2019-02-16T07:29:08.401Z,3673.13
2019-02-16T07:30:08.584Z,3735.00
2019-02-16T07:31:08.770Z,3780.00
2019-02-16T07:32:08.959Z,3830.63
2019-02-16T07:33:09.150Z,3881.25
2019-02-16T07:34:09.348Z,3931.88
2019-02-16T07:35:09.532Z,3993.75
2019-02-16T07:36:09.719Z,4055.63
2019-02-16T07:37:09.922Z,4140.00
2019-02-16T07:38:10.098Z,4196.25
2019-02-16T07:39:10.290Z,4258.13
2019-02-16T07:40:10.484Z,4297.50
2019-02-16T07:41:10.687Z,4336.88
2019-02-16T07:42:10.869Z,4404.38
2019-02-16T07:43:11.055Z,4449.38
2019-02-16T07:44:11.255Z,4505.63
2019-02-16T07:45:11.450Z,4573.13
2019-02-16T07:46:11.688Z,4601.25
2019-02-16T07:47:11.886Z,4635.00
2019-02-16T07:48:12.087Z,4685.63
2019-02-16T07:49:12.281Z,4713.75
2019-02-16T07:50:12.473Z,4753.13
2019-02-16T07:51:12.667Z,4775.63
2019-02-16T07:52:12.857Z,4798.13
2019-02-16T07:53:13.058Z,4820.63
2019-02-16T07:54:13.261Z,4854.38
2019-02-16T07:55:13.447Z,4905.00
2019-02-16T07:56:13.656Z,4972.50
2019-02-16T07:57:13.849Z,5040.00
2019-02-16T07:58:14.048Z,5113.13
2019-02-16T07:59:14.236Z,5169.38
2019-02-16T08:00:14.430Z,5186.25
2019-02-16T08:01:14.627Z,5186.25
2019-02-16T08:02:14.833Z,5208.75
2019-02-16T08:03:15.028Z,5242.50
2019-02-16T08:04:15.222Z,5304.38
2019-02-16T08:05:15.415Z,5332.50
2019-02-16T08:06:15.606Z,5394.38
2019-02-16T08:07:15.803Z,5405.63
2019-02-16T08:08:16.003Z,5467.50
2019-02-16T08:09:16.216Z,5551.88
2019-02-16T08:10:16.414Z,5585.63
2019-02-16T08:11:16.603Z,5551.88
2019-02-16T08:12:16.802Z,5506.88
2019-02-16T08:13:16.993Z,5495.63
2019-02-16T08:14:17.192Z,5473.13
2019-02-16T08:15:17.388Z,5450.63
2019-02-16T08:16:17.588Z,5461.88
2019-02-16T08:17:17.780Z,5568.75
2019-02-16T08:18:17.977Z,5692.50
2019-02-16T08:19:18.178Z,5743.13
2019-02-16T08:20:18.370Z,5754.38
2019-02-16T08:21:18.568Z,5782.50
2019-02-16T08:22:18.764Z,5855.63
2019-02-16T08:23:18.957Z,5962.50
2019-02-16T08:24:19.148Z,6063.75
2019-02-16T08:25:19.350Z,6120.00
2019-02-16T08:26:19.540Z,6120.00
2019-02-16T08:27:19.737Z,6136.88
2019-02-16T08:28:19.938Z,6136.88
2019-02-16T08:29:20.134Z,6136.88
2019-02-16T08:30:20.327Z,6058.13
2019-02-16T08:31:20.521Z,6024.38
2019-02-16T08:32:20.721Z,5973.75
2019-02-16T08:33:20.920Z,5917.50
2019-02-16T08:34:21.108Z,5821.88
2019-02-16T08:35:21.318Z,5726.25
2019-02-16T08:36:21.524Z,5630.63
2019-02-16T08:37:21.726Z,5574.38
2019-02-16T08:38:21.919Z,5557.50
2019-02-16T08:39:22.114Z,5608.13
2019-02-16T08:40:22.313Z,5647.50
2019-02-16T08:41:22.514Z,5731.88
2019-02-16T08:42:22.710Z,5821.88
2019-02-16T08:43:22.905Z,5928.75
2019-02-16T08:44:23.098Z,6018.75
2019-02-16T08:45:23.292Z,6131.25
2019-02-16T08:46:23.485Z,6226.88
2019-02-16T08:47:23.685Z,6271.88
2019-02-16T08:48:23.876Z,6300.00
2019-02-16T08:49:24.083Z,6311.25
2019-02-16T08:50:24.278Z,6373.13
2019-02-16T08:51:24.487Z,6435.00
2019-02-16T08:52:24.696Z,6457.50
2019-02-16T08:53:24.899Z,6480.00
2019-02-16T08:54:25.102Z,6502.50
2019-02-16T08:55:25.300Z,6536.25
2019-02-16T08:56:25.487Z,6592.50
2019-02-16T08:57:25.696Z,6603.75
2019-02-16T08:58:25.887Z,6586.88
2019-02-16T08:59:26.077Z,6564.38
2019-02-16T09:00:26.278Z,6603.75
2019-02-16T09:01:27.564Z,6592.50
2019-02-16T09:02:26.681Z,6564.38
2019-02-16T09:03:26.884Z,6530.63
2019-02-16T09:04:27.088Z,6530.63
2019-02-16T09:05:27.301Z,6547.50
2019-02-16T09:06:27.511Z,6570.00
2019-02-16T09:07:27.749Z,6598.13
2019-02-16T09:08:27.932Z,6603.75
2019-02-16T09:09:28.145Z,6592.50
2019-02-16T09:10:28.335Z,6553.13
2019-02-16T09:11:28.530Z,6558.75
2019-02-16T09:12:28.726Z,6586.88
2019-02-16T09:13:28.930Z,6603.75
2019-02-16T09:14:29.131Z,6626.25
2019-02-16T09:15:29.335Z,6671.25
2019-02-16T09:16:29.531Z,6676.88
2019-02-16T09:17:29.748Z,6671.25
2019-02-16T09:18:29.940Z,6682.50
2019-02-16T09:19:30.139Z,6710.63
2019-02-16T09:20:30.338Z,6755.63
2019-02-16T09:21:30.540Z,6766.88
2019-02-16T09:22:30.741Z,6766.88
2019-02-16T09:23:30.940Z,6738.75
2019-02-16T09:24:31.151Z,6738.75
2019-02-16T09:25:31.330Z,6699.38
2019-02-16T09:26:31.546Z,6648.75
2019-02-16T09:27:31.770Z,6637.50
2019-02-16T09:28:31.953Z,6615.00
2019-02-16T09:29:32.150Z,6558.75
2019-02-16T09:30:32.348Z,6558.75
2019-02-16T09:31:32.547Z,6592.50
2019-02-16T09:32:32.743Z,6626.25
2019-02-16T09:33:33.019Z,6727.50
2019-02-16T09:34:33.160Z,6778.13
2019-02-16T09:35:33.358Z,6772.50
2019-02-16T09:36:33.555Z,6795.00
2019-02-16T09:37:33.759Z,6795.00
2019-02-16T09:38:33.961Z,6811.88
2019-02-16T09:39:34.176Z,6800.63
2019-02-16T09:40:34.367Z,6778.13
2019-02-16T09:41:34.567Z,6761.25
2019-02-16T09:42:34.775Z,6761.25
2019-02-16T09:43:34.979Z,6727.50
2019-02-16T09:44:35.184Z,6738.75
2019-02-16T09:45:35.380Z,6705.00
2019-02-16T09:46:35.584Z,6688.13
2019-02-16T09:47:35.784Z,6682.50
2019-02-16T09:48:35.988Z,6693.75
2019-02-16T09:49:36.198Z,6721.88
2019-02-16T09:50:36.398Z,6699.38
2019-02-16T09:51:36.601Z,6705.00
2019-02-16T09:52:36.815Z,6682.50
2019-02-16T09:53:37.013Z,6648.75
2019-02-16T09:54:37.212Z,6603.75
2019-02-16T09:55:37.411Z,6553.13
2019-02-16T09:56:37.613Z,6491.25
2019-02-16T09:57:37.832Z,6451.88
2019-02-16T09:58:38.030Z,6406.88
2019-02-16T09:59:38.227Z,6350.63
2019-02-16T10:00:38.424Z,6361.88
2019-02-16T10:01:38.631Z,6418.13
2019-02-16T10:02:38.837Z,6463.13
2019-02-16T10:03:39.038Z,6440.63
2019-02-16T10:04:39.235Z,6423.75
2019-02-16T10:05:39.436Z,6423.75
2019-02-16T10:06:39.643Z,6429.38
2019-02-16T10:07:39.851Z,6435.00
2019-02-16T10:08:40.041Z,6451.88
2019-02-16T10:09:40.245Z,6457.50
2019-02-16T10:10:41.685Z,6457.50
2019-02-16T10:11:40.647Z,6474.38
2019-02-16T10:12:40.844Z,6480.00
2019-02-16T10:13:41.045Z,6513.75
2019-02-16T10:14:41.248Z,6541.88
2019-02-16T10:15:41.452Z,6564.38
2019-02-16T10:16:41.647Z,6541.88
2019-02-16T10:17:41.845Z,6553.13
2019-02-16T10:18:42.046Z,6525.00
2019-02-16T10:19:42.237Z,6536.25
2019-02-16T10:20:42.433Z,6541.88
2019-02-16T10:21:42.644Z,6491.25
2019-02-16T10:22:42.835Z,6485.63
2019-02-16T10:23:43.034Z,6480.00
2019-02-16T10:24:43.249Z,6513.75
2019-02-16T10:25:43.450Z,6502.50
2019-02-16T10:26:43.646Z,6536.25
2019-02-16T10:27:43.845Z,6468.75
2019-02-16T10:28:44.042Z,6429.38
2019-02-16T10:29:44.250Z,6401.25
2019-02-16T10:30:44.455Z,6373.13
2019-02-16T10:31:44.652Z,6328.13
2019-02-16T10:32:44.863Z,6328.13
2019-02-16T10:33:45.507Z,6294.38
2019-02-16T10:34:45.210Z,6238.13
2019-02-16T10:35:45.409Z,6226.88
2019-02-16T10:36:45.607Z,6170.63
2019-02-16T10:37:45.800Z,6153.75
2019-02-16T10:38:46.002Z,6131.25
2019-02-16T10:39:46.199Z,6136.88
2019-02-16T10:40:46.393Z,6125.63
2019-02-16T10:41:46.587Z,6080.63
2019-02-16T10:42:46.790Z,5973.75
2019-02-16T10:43:46.994Z,5889.38
2019-02-16T10:44:47.194Z,5855.63
2019-02-16T10:45:47.394Z,5838.75
2019-02-16T10:46:47.595Z,5833.13
2019-02-16T10:47:47.790Z,5895.00
2019-02-16T10:48:47.994Z,5765.63
2019-02-16T10:49:48.192Z,5625.00
2019-02-16T10:50:48.403Z,5540.63
2019-02-16T10:51:48.624Z,5512.50
2019-02-16T10:52:48.833Z,5608.13
2019-02-16T10:53:49.036Z,5754.38
2019-02-16T10:54:49.235Z,5760.00
2019-02-16T10:55:49.435Z,5838.75
2019-02-16T10:56:49.632Z,5990.63
2019-02-16T10:57:49.830Z,6030.00
2019-02-16T10:58:50.036Z,6091.88
2019-02-16T10:59:50.247Z,6165.00
2019-02-16T11:00:50.445Z,6288.75
2019-02-16T11:01:50.647Z,6288.75
2019-02-16T11:02:50.851Z,6300.00
2019-02-16T11:03:51.051Z,6271.88
2019-02-16T11:04:51.250Z,6193.13
2019-02-16T11:05:51.455Z,6114.38
2019-02-16T11:06:51.657Z,6210.00
2019-02-16T11:07:51.852Z,6148.13
2019-02-16T11:08:52.058Z,6024.38
2019-02-16T11:09:52.260Z,6052.50
2019-02-16T11:10:52.459Z,6103.13
2019-02-16T11:11:52.671Z,6041.25
2019-02-16T11:12:52.866Z,6041.25
2019-02-16T11:13:53.070Z,5979.38
2019-02-16T11:14:53.274Z,5889.38
2019-02-16T11:15:53.477Z,5889.38
2019-02-16T11:16:53.789Z,5816.25
2019-02-16T11:17:55.797Z,5731.88
2019-02-16T11:18:54.065Z,5686.88
2019-02-16T11:19:54.272Z,5551.88
2019-02-16T11:20:54.454Z,5383.13
2019-02-16T11:21:54.651Z,5315.63
2019-02-16T11:22:54.857Z,5298.75
2019-02-16T11:23:55.061Z,5287.50
2019-02-16T11:24:55.283Z,5270.63
2019-02-16T11:25:55.527Z,5191.88
2019-02-16T11:26:55.688Z,5197.50
2019-02-16T11:27:55.877Z,5231.25
2019-02-16T11:28:56.109Z,5236.88
2019-02-16T11:29:56.299Z,5220.00
2019-02-16T11:30:56.499Z,5208.75
2019-02-16T11:31:56.705Z,5186.25
2019-02-16T11:32:56.898Z,5175.00
2019-02-16T11:33:57.099Z,5146.88
2019-02-16T11:34:57.291Z,5158.13
2019-02-16T11:35:57.500Z,5152.50
2019-02-16T11:36:57.705Z,5169.38
2019-02-16T11:37:57.900Z,5208.75
2019-02-16T11:38:58.094Z,5231.25
2019-02-16T11:39:58.303Z,5214.38
2019-02-16T11:40:58.505Z,5175.00
2019-02-16T11:41:58.705Z,5124.38
2019-02-16T11:42:58.900Z,5101.88
2019-02-16T11:43:59.110Z,5079.38
2019-02-16T11:44:59.313Z,5051.25
2019-02-16T11:45:59.508Z,5023.13
2019-02-16T11:46:59.722Z,5006.25
2019-02-16T11:48:00.738Z,4944.38
2019-02-16T11:49:00.109Z,4921.88
2019-02-16T11:50:00.323Z,4933.13
2019-02-16T11:51:00.528Z,4910.63
2019-02-16T11:52:00.708Z,4893.75
2019-02-16T11:53:00.919Z,4860.00
2019-02-16T11:54:01.127Z,4854.38
2019-02-16T11:55:01.360Z,4826.25
2019-02-16T11:56:01.543Z,4775.63
2019-02-16T11:57:01.726Z,4741.88
2019-02-16T11:58:01.926Z,4702.50
2019-02-16T11:59:02.850Z,4668.75
2019-02-16T12:00:02.348Z,4651.88
2019-02-16T12:01:02.544Z,4590.00
2019-02-16T12:02:02.748Z,4567.50
2019-02-16T12:03:02.961Z,4505.63
2019-02-16T12:04:03.137Z,4471.88
2019-02-16T12:05:03.347Z,4460.63
2019-02-16T12:06:03.548Z,4443.75
2019-02-16T12:07:03.740Z,4426.88
2019-02-16T12:08:03.947Z,4415.63
2019-02-16T12:09:04.149Z,4381.88
2019-02-16T12:10:04.351Z,4353.75
2019-02-16T12:11:04.546Z,4314.38
2019-02-16T12:12:04.753Z,4280.63
2019-02-16T12:13:04.966Z,4230.00
2019-02-16T12:14:05.163Z,4168.13
2019-02-16T12:15:05.369Z,4123.13
2019-02-16T12:16:05.574Z,4083.75
2019-02-16T12:17:05.771Z,4050.00
2019-02-16T12:18:05.973Z,4010.63
2019-02-16T12:19:06.195Z,3993.75
2019-02-16T12:20:06.391Z,3954.38
2019-02-16T12:21:06.610Z,3937.50
2019-02-16T12:22:06.797Z,3920.63
2019-02-16T12:23:07.011Z,3920.63
2019-02-16T12:24:07.207Z,3892.50
2019-02-16T12:25:07.403Z,3886.88
2019-02-16T12:26:07.602Z,3858.75
2019-02-16T12:27:07.804Z,3802.50
2019-02-16T12:28:07.991Z,3791.25
2019-02-16T12:29:08.194Z,3740.63
2019-02-16T12:30:08.395Z,3701.25
2019-02-16T12:31:08.584Z,3667.50
2019-02-16T12:32:08.784Z,3628.13
2019-02-16T12:33:08.984Z,3600.00
2019-02-16T12:34:09.190Z,3560.63
2019-02-16T12:35:09.386Z,3510.00
2019-02-16T12:36:09.584Z,3453.75
2019-02-16T12:37:09.786Z,3397.50
2019-02-16T12:38:09.982Z,3330.00
2019-02-16T12:39:10.176Z,3268.13
2019-02-16T12:40:10.375Z,3189.38
2019-02-16T12:41:10.572Z,3121.88
2019-02-16T12:42:10.767Z,3065.63
2019-02-16T12:43:10.959Z,3009.38
2019-02-16T12:44:11.156Z,2970.00
2019-02-16T12:45:11.355Z,2913.75